sensor_id;sensor_type;location;lat;lon;timestamp;P1;durP1;ratioP1;P2;durP2;ratioP2
38879;SDS011;25887;30.194;-97.880;2023-09-30T00:02:22;2.58;;;1.40;;
38879;SDS011;25887;30.194;-97.880;2023-09-30T00:04:48;2.95;;;1.33;;
38879;SDS011;25887;30.194;-97.880;2023-09-30T00:07:14;1.63;;;1.33;;
38879;SDS011;25887;30.194;-97.880;2023-09-30T00:09:41;1.50;;;1.20;;
38879;SDS011;25887;30.194;-97.880;2023-09-30T00:12:07;1.35;;;1.25;;
38879;SDS011;25887;30.194;-97.880;2023-09-30T00:14:33;1.95;;;1.40;;
38879;SDS011;25887;30.194;-97.880;2023-09-30T00:16:59;2.03;;;1.40;;
38879;SDS011;25887;30.194;-97.880;2023-09-30T00:19:25;1.48;;;1.23;;
38879;SDS011;25887;30.194;-97.880;2023-09-30T00:21:51;1.98;;;1.35;;
38879;SDS011;25887;30.194;-97.880;2023-09-30T00:24:18;3.90;;;1.45;;
38879;SDS011;25887;30.194;-97.880;2023-09-30T00:26:46;2.75;;;1.38;;
38879;SDS011;25887;30.194;-97.880;2023-09-30T00:29:12;1.45;;;1.05;;
38879;SDS011;25887;30.194;-97.880;2023-09-30T00:31:39;1.40;;;1.30;;
38879;SDS011;25887;30.194;-97.880;2023-09-30T00:34:07;1.50;;;1.23;;
38879;SDS011;25887;30.194;-97.880;2023-09-30T00:36:33;5.32;;;1.48;;
38879;SDS011;25887;30.194;-97.880;2023-09-30T00:38:59;2.88;;;1.10;;
38879;SDS011;25887;30.194;-97.880;2023-09-30T00:41:26;2.78;;;1.27;;
38879;SDS011;25887;30.194;-97.880;2023-09-30T00:43:52;1.80;;;1.17;;
38879;SDS011;25887;30.194;-97.880;2023-09-30T00:46:26;2.33;;;1.10;;
38879;SDS011;25887;30.194;-97.880;2023-09-30T00:48:55;2.45;;;1.40;;
38879;SDS011;25887;30.194;-97.880;2023-09-30T00:51:23;3.33;;;1.25;;
38879;SDS011;25887;30.194;-97.880;2023-09-30T00:53:50;1.90;;;1.10;;
38879;SDS011;25887;30.194;-97.880;2023-09-30T00:56:18;1.27;;;1.10;;
38879;SDS011;25887;30.194;-97.880;2023-09-30T00:58:48;1.75;;;1.23;;
38879;SDS011;25887;30.194;-97.880;2023-09-30T01:01:18;1.20;;;0.85;;
38879;SDS011;25887;30.194;-97.880;2023-09-30T01:03:45;1.65;;;1.00;;
38879;SDS011;25887;30.194;-97.880;2023-09-30T01:06:12;1.90;;;0.85;;
38879;SDS011;25887;30.194;-97.880;2023-09-30T01:08:39;1.17;;;0.88;;
38879;SDS011;25887;30.194;-97.880;2023-09-30T01:11:06;4.78;;;0.90;;
38879;SDS011;25887;30.194;-97.880;2023-09-30T01:13:33;1.65;;;0.93;;
38879;SDS011;25887;30.194;-97.880;2023-09-30T01:16:04;1.23;;;0.90;;
38879;SDS011;25887;30.194;-97.880;2023-09-30T01:18:31;3.70;;;0.90;;
38879;SDS011;25887;30.194;-97.880;2023-09-30T01:20:59;1.10;;;0.60;;
38879;SDS011;25887;30.194;-97.880;2023-09-30T01:23:29;4.70;;;1.55;;
38879;SDS011;25887;30.194;-97.880;2023-09-30T01:26:02;1.25;;;0.80;;
38879;SDS011;25887;30.194;-97.880;2023-09-30T01:28:29;4.53;;;0.50;;
38879;SDS011;25887;30.194;-97.880;2023-09-30T01:31:01;1.25;;;0.88;;
38879;SDS011;25887;30.194;-97.880;2023-09-30T01:33:28;1.70;;;0.90;;
38879;SDS011;25887;30.194;-97.880;2023-09-30T01:35:54;2.30;;;0.77;;
38879;SDS011;25887;30.194;-97.880;2023-09-30T01:38:20;0.95;;;0.63;;
38879;SDS011;25887;30.194;-97.880;2023-09-30T01:40:46;1.58;;;0.90;;
38879;SDS011;25887;30.194;-97.880;2023-09-30T01:43:16;0.45;;;0.40;;
38879;SDS011;25887;30.194;-97.880;2023-09-30T01:45:42;1.65;;;1.00;;
38879;SDS011;25887;30.194;-97.880;2023-09-30T01:48:09;1.70;;;0.80;;
38879;SDS011;25887;30.194;-97.880;2023-09-30T01:50:37;2.60;;;0.63;;
38879;SDS011;25887;30.194;-97.880;2023-09-30T01:53:08;3.15;;;1.00;;
38879;SDS011;25887;30.194;-97.880;2023-09-30T01:55:35;2.13;;;1.05;;
38879;SDS011;25887;30.194;-97.880;2023-09-30T01:58:02;3.17;;;1.33;;
38879;SDS011;25887;30.194;-97.880;2023-09-30T02:00:28;3.50;;;1.02;;
38879;SDS011;25887;30.194;-97.880;2023-09-30T02:02:57;2.10;;;1.20;;
38879;SDS011;25887;30.194;-97.880;2023-09-30T02:05:23;0.93;;;0.80;;
38879;SDS011;25887;30.194;-97.880;2023-09-30T02:07:50;1.02;;;0.80;;
38879;SDS011;25887;30.194;-97.880;2023-09-30T02:10:16;2.25;;;1.05;;
38879;SDS011;25887;30.194;-97.880;2023-09-30T02:12:46;1.50;;;0.80;;
38879;SDS011;25887;30.194;-97.880;2023-09-30T02:15:22;1.27;;;1.00;;
38879;SDS011;25887;30.194;-97.880;2023-09-30T02:17:55;1.38;;;0.73;;
38879;SDS011;25887;30.194;-97.880;2023-09-30T02:20:21;1.77;;;0.80;;
38879;SDS011;25887;30.194;-97.880;2023-09-30T02:22:51;5.43;;;1.10;;
38879;SDS011;25887;30.194;-97.880;2023-09-30T02:25:17;2.30;;;1.38;;
38879;SDS011;25887;30.194;-97.880;2023-09-30T02:27:59;8.15;;;1.00;;
38879;SDS011;25887;30.194;-97.880;2023-09-30T02:30:26;3.13;;;1.00;;
38879;SDS011;25887;30.194;-97.880;2023-09-30T02:32:52;3.33;;;0.90;;
38879;SDS011;25887;30.194;-97.880;2023-09-30T02:35:19;1.20;;;1.10;;
38879;SDS011;25887;30.194;-97.880;2023-09-30T02:37:45;4.35;;;0.90;;
38879;SDS011;25887;30.194;-97.880;2023-09-30T02:40:12;1.95;;;1.10;;
38879;SDS011;25887;30.194;-97.880;2023-09-30T02:42:40;1.33;;;0.77;;
38879;SDS011;25887;30.194;-97.880;2023-09-30T02:45:07;0.98;;;0.88;;
38879;SDS011;25887;30.194;-97.880;2023-09-30T02:47:34;1.63;;;0.90;;
38879;SDS011;25887;30.194;-97.880;2023-09-30T02:50:00;1.13;;;1.02;;
38879;SDS011;25887;30.194;-97.880;2023-09-30T02:52:27;1.67;;;0.90;;
38879;SDS011;25887;30.194;-97.880;2023-09-30T02:54:56;3.22;;;0.93;;
38879;SDS011;25887;30.194;-97.880;2023-09-30T02:57:24;1.52;;;1.08;;
38879;SDS011;25887;30.194;-97.880;2023-09-30T02:59:53;4.97;;;0.90;;
38879;SDS011;25887;30.194;-97.880;2023-09-30T03:02:22;3.17;;;0.85;;
38879;SDS011;25887;30.194;-97.880;2023-09-30T03:04:49;1.70;;;1.13;;
38879;SDS011;25887;30.194;-97.880;2023-09-30T03:07:17;1.80;;;0.93;;
38879;SDS011;25887;30.194;-97.880;2023-09-30T03:09:45;4.07;;;0.73;;
38879;SDS011;25887;30.194;-97.880;2023-09-30T03:12:12;3.47;;;0.95;;
38879;SDS011;25887;30.194;-97.880;2023-09-30T03:14:45;3.60;;;1.10;;
38879;SDS011;25887;30.194;-97.880;2023-09-30T03:17:13;2.00;;;0.90;;
38879;SDS011;25887;30.194;-97.880;2023-09-30T03:19:39;1.40;;;0.77;;
38879;SDS011;25887;30.194;-97.880;2023-09-30T03:22:06;3.47;;;0.90;;
38879;SDS011;25887;30.194;-97.880;2023-09-30T03:24:37;0.80;;;0.80;;
38879;SDS011;25887;30.194;-97.880;2023-09-30T03:27:08;3.42;;;0.98;;
38879;SDS011;25887;30.194;-97.880;2023-09-30T03:29:37;2.53;;;0.82;;
38879;SDS011;25887;30.194;-97.880;2023-09-30T03:32:03;3.42;;;1.00;;
38879;SDS011;25887;30.194;-97.880;2023-09-30T03:34:31;3.13;;;1.05;;
38879;SDS011;25887;30.194;-97.880;2023-09-30T03:36:57;3.72;;;0.98;;
38879;SDS011;25887;30.194;-97.880;2023-09-30T03:39:26;0.80;;;0.60;;
38879;SDS011;25887;30.194;-97.880;2023-09-30T03:41:57;4.72;;;1.15;;
38879;SDS011;25887;30.194;-97.880;2023-09-30T03:44:24;1.48;;;0.70;;
38879;SDS011;25887;30.194;-97.880;2023-09-30T03:46:53;2.33;;;0.85;;
38879;SDS011;25887;30.194;-97.880;2023-09-30T03:49:20;2.85;;;0.70;;
38879;SDS011;25887;30.194;-97.880;2023-09-30T03:51:46;2.13;;;0.70;;
38879;SDS011;25887;30.194;-97.880;2023-09-30T03:54:12;0.82;;;0.60;;
38879;SDS011;25887;30.194;-97.880;2023-09-30T03:56:39;0.80;;;0.70;;
38879;SDS011;25887;30.194;-97.880;2023-09-30T03:59:06;3.00;;;0.77;;
38879;SDS011;25887;30.194;-97.880;2023-09-30T04:01:34;0.88;;;0.70;;
38879;SDS011;25887;30.194;-97.880;2023-09-30T04:04:00;2.83;;;0.77;;
38879;SDS011;25887;30.194;-97.880;2023-09-30T04:06:26;1.20;;;0.85;;
38879;SDS011;25887;30.194;-97.880;2023-09-30T04:08:54;3.22;;;1.15;;
38879;SDS011;25887;30.194;-97.880;2023-09-30T04:11:20;2.50;;;0.80;;
38879;SDS011;25887;30.194;-97.880;2023-09-30T04:13:46;3.75;;;0.75;;
38879;SDS011;25887;30.194;-97.880;2023-09-30T04:16:12;2.70;;;0.70;;
38879;SDS011;25887;30.194;-97.880;2023-09-30T04:18:38;0.85;;;0.55;;
38879;SDS011;25887;30.194;-97.880;2023-09-30T04:21:05;4.40;;;1.00;;
38879;SDS011;25887;30.194;-97.880;2023-09-30T04:23:33;0.70;;;0.70;;
38879;SDS011;25887;30.194;-97.880;2023-09-30T04:26:02;1.58;;;0.60;;
38879;SDS011;25887;30.194;-97.880;2023-09-30T04:28:29;0.73;;;0.52;;
38879;SDS011;25887;30.194;-97.880;2023-09-30T04:30:55;2.05;;;0.55;;
38879;SDS011;25887;30.194;-97.880;2023-09-30T04:33:23;1.42;;;1.00;;
38879;SDS011;25887;30.194;-97.880;2023-09-30T04:35:50;1.48;;;0.60;;
38879;SDS011;25887;30.194;-97.880;2023-09-30T04:38:16;3.42;;;0.60;;
38879;SDS011;25887;30.194;-97.880;2023-09-30T04:40:42;1.50;;;0.70;;
38879;SDS011;25887;30.194;-97.880;2023-09-30T04:43:11;0.47;;;0.47;;
38879;SDS011;25887;30.194;-97.880;2023-09-30T04:45:39;0.90;;;0.50;;
38879;SDS011;25887;30.194;-97.880;2023-09-30T04:48:05;2.08;;;0.47;;
38879;SDS011;25887;30.194;-97.880;2023-09-30T04:50:31;2.70;;;0.60;;
38879;SDS011;25887;30.194;-97.880;2023-09-30T04:52:58;2.83;;;0.47;;
38879;SDS011;25887;30.194;-97.880;2023-09-30T04:55:24;2.83;;;1.02;;
38879;SDS011;25887;30.194;-97.880;2023-09-30T04:57:52;1.73;;;0.52;;
38879;SDS011;25887;30.194;-97.880;2023-09-30T05:00:19;0.38;;;0.22;;
38879;SDS011;25887;30.194;-97.880;2023-09-30T05:05:20;3.78;;;0.60;;
38879;SDS011;25887;30.194;-97.880;2023-09-30T05:07:46;0.88;;;0.40;;
38879;SDS011;25887;30.194;-97.880;2023-09-30T05:10:13;0.93;;;0.77;;
38879;SDS011;25887;30.194;-97.880;2023-09-30T05:12:42;1.15;;;0.50;;
38879;SDS011;25887;30.194;-97.880;2023-09-30T05:15:12;0.45;;;0.30;;
38879;SDS011;25887;30.194;-97.880;2023-09-30T05:17:41;0.35;;;0.28;;
38879;SDS011;25887;30.194;-97.880;2023-09-30T05:20:11;4.38;;;0.35;;
38879;SDS011;25887;30.194;-97.880;2023-09-30T05:22:38;0.20;;;0.13;;
38879;SDS011;25887;30.194;-97.880;2023-09-30T05:25:11;1.45;;;0.40;;
38879;SDS011;25887;30.194;-97.880;2023-09-30T05:27:44;0.65;;;0.35;;
38879;SDS011;25887;30.194;-97.880;2023-09-30T05:30:12;3.58;;;0.38;;
38879;SDS011;25887;30.194;-97.880;2023-09-30T05:32:41;2.35;;;0.40;;
38879;SDS011;25887;30.194;-97.880;2023-09-30T05:35:07;2.58;;;0.60;;
38879;SDS011;25887;30.194;-97.880;2023-09-30T05:37:42;0.52;;;0.35;;
38879;SDS011;25887;30.194;-97.880;2023-09-30T05:40:10;0.52;;;0.20;;
38879;SDS011;25887;30.194;-97.880;2023-09-30T05:42:47;2.53;;;0.52;;
38879;SDS011;25887;30.194;-97.880;2023-09-30T05:45:15;1.70;;;0.32;;
38879;SDS011;25887;30.194;-97.880;2023-09-30T05:47:42;1.38;;;0.30;;
38879;SDS011;25887;30.194;-97.880;2023-09-30T05:50:09;0.40;;;0.40;;
38879;SDS011;25887;30.194;-97.880;2023-09-30T05:52:41;1.27;;;0.35;;
38879;SDS011;25887;30.194;-97.880;2023-09-30T05:55:08;2.67;;;0.60;;
38879;SDS011;25887;30.194;-97.880;2023-09-30T05:57:34;0.50;;;0.30;;
38879;SDS011;25887;30.194;-97.880;2023-09-30T06:00:01;5.20;;;0.70;;
38879;SDS011;25887;30.194;-97.880;2023-09-30T06:02:49;3.67;;;0.50;;
38879;SDS011;25887;30.194;-97.880;2023-09-30T06:05:17;1.08;;;0.35;;
38879;SDS011;25887;30.194;-97.880;2023-09-30T06:07:48;4.78;;;0.68;;
38879;SDS011;25887;30.194;-97.880;2023-09-30T06:10:15;5.70;;;0.65;;
38879;SDS011;25887;30.194;-97.880;2023-09-30T06:12:41;1.75;;;0.50;;
38879;SDS011;25887;30.194;-97.880;2023-09-30T06:15:07;1.08;;;0.47;;
38879;SDS011;25887;30.194;-97.880;2023-09-30T06:17:34;2.25;;;0.70;;
38879;SDS011;25887;30.194;-97.880;2023-09-30T06:20:00;1.52;;;0.47;;
38879;SDS011;25887;30.194;-97.880;2023-09-30T06:22:33;1.57;;;0.60;;
38879;SDS011;25887;30.194;-97.880;2023-09-30T06:25:00;1.98;;;0.60;;
38879;SDS011;25887;30.194;-97.880;2023-09-30T06:27:26;0.50;;;0.40;;
38879;SDS011;25887;30.194;-97.880;2023-09-30T06:29:52;0.85;;;0.52;;
38879;SDS011;25887;30.194;-97.880;2023-09-30T06:32:18;1.45;;;0.47;;
38879;SDS011;25887;30.194;-97.880;2023-09-30T06:34:44;1.00;;;0.40;;
38879;SDS011;25887;30.194;-97.880;2023-09-30T06:37:10;4.38;;;0.57;;
38879;SDS011;25887;30.194;-97.880;2023-09-30T06:39:36;1.50;;;0.30;;
38879;SDS011;25887;30.194;-97.880;2023-09-30T06:42:20;2.15;;;0.57;;
38879;SDS011;25887;30.194;-97.880;2023-09-30T06:44:46;2.30;;;0.50;;
38879;SDS011;25887;30.194;-97.880;2023-09-30T06:47:12;0.70;;;0.40;;
38879;SDS011;25887;30.194;-97.880;2023-09-30T06:49:39;1.10;;;0.43;;
38879;SDS011;25887;30.194;-97.880;2023-09-30T06:52:05;1.60;;;0.75;;
38879;SDS011;25887;30.194;-97.880;2023-09-30T06:54:32;2.10;;;0.52;;
38879;SDS011;25887;30.194;-97.880;2023-09-30T06:56:58;1.83;;;0.60;;
38879;SDS011;25887;30.194;-97.880;2023-09-30T06:59:25;0.75;;;0.40;;
38879;SDS011;25887;30.194;-97.880;2023-09-30T07:01:51;5.47;;;0.82;;
38879;SDS011;25887;30.194;-97.880;2023-09-30T07:04:17;3.20;;;0.52;;
38879;SDS011;25887;30.194;-97.880;2023-09-30T07:06:43;2.20;;;0.55;;
38879;SDS011;25887;30.194;-97.880;2023-09-30T07:09:09;2.05;;;0.82;;
38879;SDS011;25887;30.194;-97.880;2023-09-30T07:11:37;0.93;;;0.63;;
38879;SDS011;25887;30.194;-97.880;2023-09-30T07:14:04;1.50;;;0.75;;
38879;SDS011;25887;30.194;-97.880;2023-09-30T07:16:30;4.35;;;0.88;;
38879;SDS011;25887;30.194;-97.880;2023-09-30T07:18:56;2.10;;;0.73;;
38879;SDS011;25887;30.194;-97.880;2023-09-30T07:21:22;1.10;;;0.50;;
38879;SDS011;25887;30.194;-97.880;2023-09-30T07:23:54;0.80;;;0.60;;
38879;SDS011;25887;30.194;-97.880;2023-09-30T07:26:24;3.15;;;0.90;;
38879;SDS011;25887;30.194;-97.880;2023-09-30T07:28:52;1.77;;;0.52;;
38879;SDS011;25887;30.194;-97.880;2023-09-30T07:31:21;2.10;;;0.60;;
38879;SDS011;25887;30.194;-97.880;2023-09-30T07:33:48;2.50;;;0.63;;
38879;SDS011;25887;30.194;-97.880;2023-09-30T07:36:15;2.50;;;0.73;;
38879;SDS011;25887;30.194;-97.880;2023-09-30T07:38:41;3.22;;;0.68;;
38879;SDS011;25887;30.194;-97.880;2023-09-30T07:41:07;1.75;;;0.50;;
38879;SDS011;25887;30.194;-97.880;2023-09-30T07:43:35;1.95;;;0.80;;
38879;SDS011;25887;30.194;-97.880;2023-09-30T07:46:07;1.00;;;0.80;;
38879;SDS011;25887;30.194;-97.880;2023-09-30T07:48:34;6.07;;;0.60;;
38879;SDS011;25887;30.194;-97.880;2023-09-30T07:51:04;4.05;;;0.80;;
38879;SDS011;25887;30.194;-97.880;2023-09-30T07:53:34;1.25;;;0.65;;
38879;SDS011;25887;30.194;-97.880;2023-09-30T07:56:00;1.65;;;0.70;;
38879;SDS011;25887;30.194;-97.880;2023-09-30T07:58:27;2.80;;;1.13;;
38879;SDS011;25887;30.194;-97.880;2023-09-30T08:00:53;3.13;;;0.82;;
38879;SDS011;25887;30.194;-97.880;2023-09-30T08:03:19;2.97;;;0.77;;
38879;SDS011;25887;30.194;-97.880;2023-09-30T08:05:46;1.98;;;0.85;;
38879;SDS011;25887;30.194;-97.880;2023-09-30T08:08:12;6.03;;;1.25;;
38879;SDS011;25887;30.194;-97.880;2023-09-30T08:10:39;2.63;;;1.00;;
38879;SDS011;25887;30.194;-97.880;2023-09-30T08:13:06;2.58;;;0.73;;
38879;SDS011;25887;30.194;-97.880;2023-09-30T08:15:32;0.70;;;0.70;;
38879;SDS011;25887;30.194;-97.880;2023-09-30T08:17:58;1.95;;;0.70;;
38879;SDS011;25887;30.194;-97.880;2023-09-30T08:20:24;1.95;;;0.70;;
38879;SDS011;25887;30.194;-97.880;2023-09-30T08:22:51;1.05;;;0.70;;
38879;SDS011;25887;30.194;-97.880;2023-09-30T08:25:17;1.48;;;0.82;;
38879;SDS011;25887;30.194;-97.880;2023-09-30T08:27:43;3.67;;;1.10;;
38879;SDS011;25887;30.194;-97.880;2023-09-30T08:30:15;1.48;;;0.70;;
38879;SDS011;25887;30.194;-97.880;2023-09-30T08:32:41;4.53;;;0.93;;
38879;SDS011;25887;30.194;-97.880;2023-09-30T08:35:07;7.07;;;1.00;;
38879;SDS011;25887;30.194;-97.880;2023-09-30T08:37:35;7.03;;;1.13;;
38879;SDS011;25887;30.194;-97.880;2023-09-30T08:40:01;1.23;;;0.93;;
38879;SDS011;25887;30.194;-97.880;2023-09-30T08:42:30;4.05;;;0.90;;
38879;SDS011;25887;30.194;-97.880;2023-09-30T08:44:59;3.13;;;1.00;;
38879;SDS011;25887;30.194;-97.880;2023-09-30T08:47:28;2.80;;;1.00;;
38879;SDS011;25887;30.194;-97.880;2023-09-30T08:49:54;3.50;;;1.08;;
38879;SDS011;25887;30.194;-97.880;2023-09-30T08:52:31;1.95;;;0.88;;
38879;SDS011;25887;30.194;-97.880;2023-09-30T08:54:59;3.60;;;0.90;;
38879;SDS011;25887;30.194;-97.880;2023-09-30T08:57:26;7.32;;;1.27;;
38879;SDS011;25887;30.194;-97.880;2023-09-30T08:59:54;8.32;;;1.40;;
38879;SDS011;25887;30.194;-97.880;2023-09-30T09:02:21;2.10;;;0.90;;
38879;SDS011;25887;30.194;-97.880;2023-09-30T09:04:48;5.13;;;1.02;;
38879;SDS011;25887;30.194;-97.880;2023-09-30T09:07:16;2.63;;;1.10;;
38879;SDS011;25887;30.194;-97.880;2023-09-30T09:09:42;3.28;;;0.90;;
38879;SDS011;25887;30.194;-97.880;2023-09-30T09:12:35;1.90;;;0.93;;
38879;SDS011;25887;30.194;-97.880;2023-09-30T09:15:07;5.07;;;1.02;;
38879;SDS011;25887;30.194;-97.880;2023-09-30T09:17:45;2.60;;;1.13;;
38879;SDS011;25887;30.194;-97.880;2023-09-30T09:20:12;4.40;;;1.35;;
38879;SDS011;25887;30.194;-97.880;2023-09-30T09:22:46;1.90;;;1.17;;
38879;SDS011;25887;30.194;-97.880;2023-09-30T09:25:19;2.17;;;1.00;;
38879;SDS011;25887;30.194;-97.880;2023-09-30T09:27:48;6.95;;;1.50;;
38879;SDS011;25887;30.194;-97.880;2023-09-30T09:30:19;4.60;;;0.77;;
38879;SDS011;25887;30.194;-97.880;2023-09-30T09:35:24;2.95;;;0.82;;
38879;SDS011;25887;30.194;-97.880;2023-09-30T09:37:56;2.42;;;1.25;;
38879;SDS011;25887;30.194;-97.880;2023-09-30T09:40:26;1.35;;;0.88;;
38879;SDS011;25887;30.194;-97.880;2023-09-30T09:42:54;1.90;;;0.82;;
38879;SDS011;25887;30.194;-97.880;2023-09-30T09:45:22;4.82;;;1.00;;
38879;SDS011;25887;30.194;-97.880;2023-09-30T09:47:52;3.03;;;1.20;;
38879;SDS011;25887;30.194;-97.880;2023-09-30T09:50:20;2.75;;;1.23;;
38879;SDS011;25887;30.194;-97.880;2023-09-30T09:52:51;2.85;;;1.13;;
38879;SDS011;25887;30.194;-97.880;2023-09-30T09:55:24;2.63;;;1.17;;
38879;SDS011;25887;30.194;-97.880;2023-09-30T09:57:50;1.08;;;0.98;;
38879;SDS011;25887;30.194;-97.880;2023-09-30T10:00:21;2.75;;;1.08;;
38879;SDS011;25887;30.194;-97.880;2023-09-30T10:02:49;3.10;;;1.10;;
38879;SDS011;25887;30.194;-97.880;2023-09-30T10:05:19;3.17;;;1.13;;
38879;SDS011;25887;30.194;-97.880;2023-09-30T10:10:30;4.88;;;1.00;;
38879;SDS011;25887;30.194;-97.880;2023-09-30T10:12:56;2.00;;;1.05;;
38879;SDS011;25887;30.194;-97.880;2023-09-30T10:20:34;3.00;;;0.88;;
38879;SDS011;25887;30.194;-97.880;2023-09-30T10:25:51;2.22;;;1.30;;
38879;SDS011;25887;30.194;-97.880;2023-09-30T10:39:05;2.88;;;0.95;;
38879;SDS011;25887;30.194;-97.880;2023-09-30T10:46:48;3.53;;;1.08;;
38879;SDS011;25887;30.194;-97.880;2023-09-30T10:49:16;2.28;;;1.10;;
38879;SDS011;25887;30.194;-97.880;2023-09-30T10:51:57;2.95;;;1.30;;
38879;SDS011;25887;30.194;-97.880;2023-09-30T10:54:28;2.95;;;1.20;;
38879;SDS011;25887;30.194;-97.880;2023-09-30T10:56:58;3.70;;;1.27;;
38879;SDS011;25887;30.194;-97.880;2023-09-30T10:59:29;4.50;;;1.20;;
38879;SDS011;25887;30.194;-97.880;2023-09-30T11:01:56;4.10;;;1.35;;
38879;SDS011;25887;30.194;-97.880;2023-09-30T11:04:22;3.90;;;0.88;;
38879;SDS011;25887;30.194;-97.880;2023-09-30T11:06:48;1.20;;;0.93;;
38879;SDS011;25887;30.194;-97.880;2023-09-30T11:09:21;2.25;;;1.27;;
38879;SDS011;25887;30.194;-97.880;2023-09-30T11:11:49;2.95;;;1.30;;
38879;SDS011;25887;30.194;-97.880;2023-09-30T11:14:23;3.67;;;1.10;;
38879;SDS011;25887;30.194;-97.880;2023-09-30T11:16:51;2.30;;;1.25;;
38879;SDS011;25887;30.194;-97.880;2023-09-30T11:19:19;3.85;;;1.30;;
38879;SDS011;25887;30.194;-97.880;2023-09-30T11:21:50;3.67;;;1.20;;
38879;SDS011;25887;30.194;-97.880;2023-09-30T11:24:26;2.53;;;1.10;;
38879;SDS011;25887;30.194;-97.880;2023-09-30T11:26:54;1.65;;;1.10;;
38879;SDS011;25887;30.194;-97.880;2023-09-30T11:29:23;1.88;;;1.10;;
38879;SDS011;25887;30.194;-97.880;2023-09-30T11:31:52;1.45;;;0.95;;
38879;SDS011;25887;30.194;-97.880;2023-09-30T11:34:18;2.25;;;1.10;;
38879;SDS011;25887;30.194;-97.880;2023-09-30T11:36:49;2.85;;;1.10;;
38879;SDS011;25887;30.194;-97.880;2023-09-30T11:39:27;3.33;;;1.17;;
38879;SDS011;25887;30.194;-97.880;2023-09-30T11:41:55;2.58;;;1.13;;
38879;SDS011;25887;30.194;-97.880;2023-09-30T11:44:22;3.83;;;1.20;;
38879;SDS011;25887;30.194;-97.880;2023-09-30T11:46:59;3.38;;;1.00;;
38879;SDS011;25887;30.194;-97.880;2023-09-30T11:49:39;5.50;;;1.27;;
38879;SDS011;25887;30.194;-97.880;2023-09-30T11:52:07;3.53;;;1.10;;
38879;SDS011;25887;30.194;-97.880;2023-09-30T11:54:36;1.23;;;0.82;;
38879;SDS011;25887;30.194;-97.880;2023-09-30T11:57:06;1.65;;;1.30;;
38879;SDS011;25887;30.194;-97.880;2023-09-30T11:59:35;3.67;;;1.40;;
38879;SDS011;25887;30.194;-97.880;2023-09-30T12:02:02;3.42;;;1.27;;
38879;SDS011;25887;30.194;-97.880;2023-09-30T12:04:29;1.55;;;1.00;;
38879;SDS011;25887;30.194;-97.880;2023-09-30T12:06:55;3.42;;;1.13;;
38879;SDS011;25887;30.194;-97.880;2023-09-30T12:09:24;1.58;;;1.00;;
38879;SDS011;25887;30.194;-97.880;2023-09-30T12:11:54;3.63;;;1.20;;
38879;SDS011;25887;30.194;-97.880;2023-09-30T12:14:23;2.55;;;1.33;;
38879;SDS011;25887;30.194;-97.880;2023-09-30T12:16:50;1.63;;;1.13;;
38879;SDS011;25887;30.194;-97.880;2023-09-30T12:19:17;3.42;;;1.48;;
38879;SDS011;25887;30.194;-97.880;2023-09-30T12:21:44;3.33;;;1.20;;
38879;SDS011;25887;30.194;-97.880;2023-09-30T12:24:15;1.75;;;1.02;;
38879;SDS011;25887;30.194;-97.880;2023-09-30T12:26:43;1.27;;;0.90;;
38879;SDS011;25887;30.194;-97.880;2023-09-30T12:29:14;2.28;;;1.15;;
38879;SDS011;25887;30.194;-97.880;2023-09-30T12:31:43;5.38;;;1.40;;
38879;SDS011;25887;30.194;-97.880;2023-09-30T12:34:10;1.98;;;1.10;;
38879;SDS011;25887;30.194;-97.880;2023-09-30T12:36:38;1.25;;;1.00;;
38879;SDS011;25887;30.194;-97.880;2023-09-30T12:39:04;2.83;;;1.20;;
38879;SDS011;25887;30.194;-97.880;2023-09-30T12:41:39;2.92;;;1.17;;
38879;SDS011;25887;30.194;-97.880;2023-09-30T12:44:11;1.33;;;0.80;;
38879;SDS011;25887;30.194;-97.880;2023-09-30T12:46:38;1.20;;;0.90;;
38879;SDS011;25887;30.194;-97.880;2023-09-30T12:49:06;6.60;;;1.40;;
38879;SDS011;25887;30.194;-97.880;2023-09-30T12:51:33;4.78;;;1.20;;
38879;SDS011;25887;30.194;-97.880;2023-09-30T12:54:03;3.28;;;1.27;;
38879;SDS011;25887;30.194;-97.880;2023-09-30T12:56:29;4.20;;;1.13;;
38879;SDS011;25887;30.194;-97.880;2023-09-30T12:58:57;4.25;;;1.40;;
38879;SDS011;25887;30.194;-97.880;2023-09-30T13:01:23;3.30;;;1.23;;
38879;SDS011;25887;30.194;-97.880;2023-09-30T13:03:50;1.80;;;1.00;;
38879;SDS011;25887;30.194;-97.880;2023-09-30T13:06:17;5.00;;;1.20;;
38879;SDS011;25887;30.194;-97.880;2023-09-30T13:08:54;6.07;;;1.20;;
38879;SDS011;25887;30.194;-97.880;2023-09-30T13:11:20;3.47;;;1.10;;
38879;SDS011;25887;30.194;-97.880;2023-09-30T13:13:47;1.80;;;1.15;;
38879;SDS011;25887;30.194;-97.880;2023-09-30T13:16:13;4.60;;;1.40;;
38879;SDS011;25887;30.194;-97.880;2023-09-30T13:18:39;1.80;;;1.38;;
38879;SDS011;25887;30.194;-97.880;2023-09-30T13:21:05;4.70;;;1.95;;
38879;SDS011;25887;30.194;-97.880;2023-09-30T13:23:31;2.05;;;1.30;;
38879;SDS011;25887;30.194;-97.880;2023-09-30T13:25:58;1.92;;;1.13;;
38879;SDS011;25887;30.194;-97.880;2023-09-30T13:28:24;3.58;;;1.48;;
38879;SDS011;25887;30.194;-97.880;2023-09-30T13:30:53;4.53;;;1.52;;
38879;SDS011;25887;30.194;-97.880;2023-09-30T13:33:19;3.08;;;1.08;;
38879;SDS011;25887;30.194;-97.880;2023-09-30T13:35:48;2.88;;;1.35;;
38879;SDS011;25887;30.194;-97.880;2023-09-30T13:38:14;5.57;;;1.45;;
38879;SDS011;25887;30.194;-97.880;2023-09-30T13:40:41;5.88;;;1.55;;
38879;SDS011;25887;30.194;-97.880;2023-09-30T13:43:07;7.45;;;1.45;;
38879;SDS011;25887;30.194;-97.880;2023-09-30T13:45:33;2.35;;;1.35;;
38879;SDS011;25887;30.194;-97.880;2023-09-30T13:48:00;4.47;;;1.35;;
38879;SDS011;25887;30.194;-97.880;2023-09-30T13:50:26;3.55;;;1.25;;
38879;SDS011;25887;30.194;-97.880;2023-09-30T13:52:52;2.05;;;1.45;;
38879;SDS011;25887;30.194;-97.880;2023-09-30T13:55:18;6.25;;;1.50;;
38879;SDS011;25887;30.194;-97.880;2023-09-30T13:57:46;4.20;;;1.55;;
38879;SDS011;25887;30.194;-97.880;2023-09-30T14:00:12;5.95;;;1.35;;
38879;SDS011;25887;30.194;-97.880;2023-09-30T14:02:39;5.65;;;1.50;;
38879;SDS011;25887;30.194;-97.880;2023-09-30T14:05:06;1.67;;;1.25;;
38879;SDS011;25887;30.194;-97.880;2023-09-30T14:07:35;4.00;;;1.42;;
38879;SDS011;25887;30.194;-97.880;2023-09-30T14:10:02;3.28;;;1.60;;
38879;SDS011;25887;30.194;-97.880;2023-09-30T14:12:31;7.10;;;1.67;;
38879;SDS011;25887;30.194;-97.880;2023-09-30T14:14:57;4.32;;;1.35;;
38879;SDS011;25887;30.194;-97.880;2023-09-30T14:17:23;3.58;;;1.27;;
38879;SDS011;25887;30.194;-97.880;2023-09-30T14:19:50;1.63;;;1.20;;
38879;SDS011;25887;30.194;-97.880;2023-09-30T14:22:17;3.03;;;1.20;;
38879;SDS011;25887;30.194;-97.880;2023-09-30T14:24:43;3.10;;;1.48;;
38879;SDS011;25887;30.194;-97.880;2023-09-30T14:27:10;4.78;;;1.60;;
38879;SDS011;25887;30.194;-97.880;2023-09-30T14:29:39;2.95;;;1.38;;
38879;SDS011;25887;30.194;-97.880;2023-09-30T14:32:05;2.72;;;1.20;;
38879;SDS011;25887;30.194;-97.880;2023-09-30T14:34:32;1.98;;;1.23;;
38879;SDS011;25887;30.194;-97.880;2023-09-30T14:36:58;2.70;;;1.30;;
38879;SDS011;25887;30.194;-97.880;2023-09-30T14:39:25;2.22;;;1.23;;
38879;SDS011;25887;30.194;-97.880;2023-09-30T14:41:52;2.50;;;1.33;;
38879;SDS011;25887;30.194;-97.880;2023-09-30T14:44:18;6.05;;;1.98;;
38879;SDS011;25887;30.194;-97.880;2023-09-30T14:46:47;4.82;;;1.67;;
38879;SDS011;25887;30.194;-97.880;2023-09-30T14:49:13;2.22;;;1.35;;
38879;SDS011;25887;30.194;-97.880;2023-09-30T14:51:40;5.80;;;1.40;;
38879;SDS011;25887;30.194;-97.880;2023-09-30T14:54:06;3.22;;;1.42;;
38879;SDS011;25887;30.194;-97.880;2023-09-30T14:56:32;1.77;;;1.30;;
38879;SDS011;25887;30.194;-97.880;2023-09-30T14:58:59;2.38;;;1.25;;